WetterOnline ( https://www.wetteronline.de )

Wetter aktuell Tornio

Aktuelles Wetter: Haparanda A (16m)

6-stündlich | Neueste Meldungen
Ortszeit Temperatur Wetter
Fr, 29.05. 2:00 6.0° C leicht bewölkt
Do, 28.05. 20:00 10.4° C wolkig
Do, 28.05. 14:00 13.7° C wolkig
Do, 28.05. 8:00 11.8° C wolkenlos
Do, 28.05. 2:00 6.7° C wolkenlos
Mi, 27.05. 20:00 13.2° C leicht bewölkt
Mi, 27.05. 14:00 13.6° C leicht bewölkt
Mi, 27.05. 8:00 9.9° C leichter Regen
Ortszeit Temperatur Wetter
Fr, 29.05. 6:00 8.7° C leicht bewölkt
Fr, 29.05. 5:00 6.6° C fast wolkenlos
Fr, 29.05. 4:00 6.2° C wolkenlos
Fr, 29.05. 3:00 5.3° C wolkenlos
Fr, 29.05. 2:00 6.0° C leicht bewölkt
Fr, 29.05. 1:00 6.5° C wolkenlos
Ortszeit Relative Feuchte Sichtweite
Fr, 29.05. 2:00 71% 50 km
Do, 28.05. 20:00 63% 50 km
Do, 28.05. 14:00 37% 50 km
Do, 28.05. 8:00 42% 50 km
Do, 28.05. 2:00 65% 50 km
Mi, 27.05. 20:00 60% 50 km
Mi, 27.05. 14:00 75% 50 km
Mi, 27.05. 8:00 98% 8 km
Ortszeit Relative Feuchte Sichtweite
Fr, 29.05. 6:00 62% 50 km
Fr, 29.05. 5:00 70% 50 km
Fr, 29.05. 4:00 72% 50 km
Fr, 29.05. 3:00 75% 50 km
Fr, 29.05. 2:00 71% 50 km
Fr, 29.05. 1:00 69% 50 km
Ortszeit Niederschlagsmenge Niederschlagsart
Fr, 29.05. 2:00 keine Meldung -
Do, 28.05. 20:00 0.0 l/m2 in 12 Std. -
Do, 28.05. 14:00 keine Meldung -
Do, 28.05. 8:00 0.0 l/m2 in 12 Std. -
Do, 28.05. 2:00 0.0 l/m2 in 1 Std. -
Mi, 27.05. 20:00 0.0 l/m2 in 12 Std. -
Mi, 27.05. 14:00 0.0 l/m2 in 1 Std. Regen
Mi, 27.05. 8:00 keine Meldung -
Ortszeit Niederschlagsmenge Niederschlagsart
Fr, 29.05. 6:00 0.0 l/m2 in 1 Std. -
Fr, 29.05. 5:00 0.0 l/m2 in 1 Std. -
Fr, 29.05. 4:00 0.0 l/m2 in 1 Std. -
Fr, 29.05. 3:00 0.0 l/m2 in 1 Std. -
Fr, 29.05. 2:00 0.0 l/m2 in 1 Std. -
Fr, 29.05. 1:00 0.0 l/m2 in 1 Std. -
Ortszeit Stärke Spitze Richtung
km/h Bft. km/h Grad Sektor
Fr, 29.05. 2:00 7 2 - 300° NW
Do, 28.05. 20:00 6 1 - 220° SW
Do, 28.05. 14:00 11 2 - 240° SW
Do, 28.05. 8:00 11 2 29 320° NW
Do, 28.05. 2:00 7 2 18 320° NW
Mi, 27.05. 20:00 4 1 - 250° W
Mi, 27.05. 14:00 11 2 22 200° S
Mi, 27.05. 8:00 4 1 - 210° SW
Ortszeit Stärke Spitze Richtung
km/h Bft. km/h Grad Sektor
Fr, 29.05. 6:00 6 1 15 300° NW
Fr, 29.05. 5:00 7 2 14 280° W
Fr, 29.05. 4:00 6 1 11 290° W
Fr, 29.05. 3:00 4 1 11 310° NW
Fr, 29.05. 2:00 7 2 18 300° NW
Fr, 29.05. 1:00 7 2 17 290° W
Ortszeit Untergrenze Bedeckung Gattung
total tief tief mittel hoch
Fr, 29.05. 2:00 - 2/8 - - - -
Do, 28.05. 20:00 2100 m 5/8 3/8 - - -
Do, 28.05. 14:00 3000 m 7/8 3/8 - - -
Do, 28.05. 8:00 - 0/8 0/8 - - -
Do, 28.05. 2:00 - 0/8 0/8 - - -
Mi, 27.05. 20:00 2400 m 4/8 2/8 - - -
Mi, 27.05. 14:00 1320 m 2/8 2/8 - - -
Mi, 27.05. 8:00 1800 m 8/8 8/8 - - -
Ortszeit Bedeckungsgrad in Achtel und Wolkenuntergrenze
Fr, 29.05. 6:00 3
Fr, 29.05. 5:00 1(3600m)
Fr, 29.05. 4:00 keine Wolken
Fr, 29.05. 3:00 keine Wolken
Fr, 29.05. 2:00 2
Fr, 29.05. 1:00 keine Wolken
Ortszeit Luftdruck NN (hPa) Tendenz (hPa in 3 Std.)
Fr, 29.05. 2:00 1022 + 0,5
Do, 28.05. 20:00 1021 0,0
Do, 28.05. 14:00 1021 + 0,6
Do, 28.05. 8:00 1020 + 0,3
Do, 28.05. 2:00 1019 + 1,0
Mi, 27.05. 20:00 1017 - 0,9
Mi, 27.05. 14:00 1019 - 1,0
Mi, 27.05. 8:00 1021 - 0,4
Ortszeit Luftdruck NN (hPa) Tendenz (hPa in 3 Std.)
Fr, 29.05. 6:00 1022 - 0,2
Fr, 29.05. 5:00 1023 + 0,3
Fr, 29.05. 4:00 1022 + 0,3
Fr, 29.05. 3:00 1023 + 0,5
Fr, 29.05. 2:00 1022 + 0,5
Fr, 29.05. 1:00 1022 + 0,5
Ortszeit Schneehöhe (cm)
Fr, 29.05. 2:00 -
Do, 28.05. 20:00 -
Do, 28.05. 14:00 -
Do, 28.05. 8:00 -
Do, 28.05. 2:00 -
Mi, 27.05. 20:00 -
Mi, 27.05. 14:00 -
Mi, 27.05. 8:00 -
Ortszeit Schneehöhe (cm)
Fr, 29.05. 6:00 -
Fr, 29.05. 5:00 -
Fr, 29.05. 4:00 -
Fr, 29.05. 3:00 -
Fr, 29.05. 2:00 -
Fr, 29.05. 1:00 -
Link zu dieser Seite / Seite empfehlen

Das Wetter in ...